createdAt,value
2023-01-30T00:01:19.941Z,-0.61
2023-01-30T00:03:47.723Z,-0.76
2023-01-30T00:06:16.302Z,-0.59
2023-01-30T00:08:43.906Z,-0.71
2023-01-30T00:11:14.524Z,-0.66
2023-01-30T00:13:43.809Z,-0.65
2023-01-30T00:16:12.521Z,-0.78
2023-01-30T00:18:41.962Z,-0.60
2023-01-30T00:21:14.304Z,-0.65
2023-01-30T00:23:42.627Z,-0.66
2023-01-30T00:26:11.962Z,-0.72
2023-01-30T00:28:40.184Z,-0.81
2023-01-30T00:31:08.643Z,-0.86
2023-01-30T00:33:38.875Z,-0.83
2023-01-30T00:36:07.327Z,-1.00
2023-01-30T00:38:34.731Z,-0.94
2023-01-30T00:41:02.715Z,-0.98
2023-01-30T00:43:48.863Z,-0.88
2023-01-30T00:46:48.580Z,-0.90
2023-01-30T00:49:16.438Z,-1.05
2023-01-30T00:51:44.490Z,-1.15
2023-01-30T00:54:11.975Z,-1.26
2023-01-30T00:56:39.595Z,-1.28
2023-01-30T00:59:06.891Z,-1.32
2023-01-30T01:01:34.640Z,-1.59
2023-01-30T01:04:02.051Z,-1.62
2023-01-30T01:06:30.455Z,-1.65
2023-01-30T01:08:57.836Z,-1.77
2023-01-30T01:11:25.665Z,-1.84
2023-01-30T01:13:56.534Z,-1.80
2023-01-30T01:16:26.825Z,-1.79
2023-01-30T01:18:54.929Z,-2.02
2023-01-30T01:21:23.423Z,-1.98
2023-01-30T01:23:53.684Z,-2.04
2023-01-30T01:26:22.040Z,-2.10
2023-01-30T01:28:49.521Z,-2.12
2023-01-30T01:31:17.863Z,-2.13
2023-01-30T01:33:45.350Z,-2.17
2023-01-30T01:36:20.058Z,-2.20
2023-01-30T01:38:58.305Z,-2.20
2023-01-30T01:41:25.912Z,-2.11
2023-01-30T01:44:11.325Z,-2.17
2023-01-30T01:47:00.148Z,-2.11
2023-01-30T01:49:34.022Z,-2.04
2023-01-30T01:52:13.351Z,-2.02
2023-01-30T01:54:59.797Z,-2.12
2023-01-30T01:57:39.003Z,-2.11
2023-01-30T02:00:15.543Z,-2.15
2023-01-30T02:03:14.946Z,-2.17
2023-01-30T02:05:48.644Z,-2.15
2023-01-30T02:08:29.389Z,-2.20
2023-01-30T02:11:10.202Z,-2.17
2023-01-30T02:13:38.629Z,-2.20
2023-01-30T02:16:08.379Z,-2.21
2023-01-30T02:18:41.853Z,-2.05
2023-01-30T02:21:40.336Z,-2.15
2023-01-30T02:24:51.859Z,-2.09
2023-01-30T02:27:45.374Z,-2.05
2023-01-30T02:30:21.661Z,-1.98
2023-01-30T02:33:17.922Z,-2.08
2023-01-30T02:36:21.433Z,-2.05
2023-01-30T02:39:34.928Z,-2.02
2023-01-30T02:42:25.647Z,-2.06
2023-01-30T02:45:29.383Z,-2.00
2023-01-30T02:48:05.438Z,-2.04
2023-01-30T02:50:40.950Z,-1.89
2023-01-30T02:53:08.981Z,-1.81
2023-01-30T02:55:36.516Z,-1.84
2023-01-30T02:58:05.057Z,-1.85
2023-01-30T03:01:03.929Z,-1.76
2023-01-30T03:04:01.661Z,-1.78
2023-01-30T03:07:07.781Z,-1.79
2023-01-30T03:09:54.502Z,-1.73
2023-01-30T03:12:46.494Z,-1.74
2023-01-30T03:15:31.199Z,-1.71
2023-01-30T03:17:59.750Z,-1.59
2023-01-30T03:20:27.365Z,-1.60
2023-01-30T03:22:55.670Z,-1.59
2023-01-30T03:25:27.064Z,-1.53
2023-01-30T03:27:56.787Z,-1.60
2023-01-30T03:30:26.716Z,-1.69
2023-01-30T03:32:54.258Z,-1.59
2023-01-30T03:35:21.939Z,-1.67
2023-01-30T03:37:49.809Z,-1.70
2023-01-30T03:40:18.019Z,-1.79
2023-01-30T03:42:45.909Z,-1.74
2023-01-30T03:45:13.576Z,-1.76
2023-01-30T03:47:40.885Z,-1.66
2023-01-30T03:50:09.701Z,-1.64
2023-01-30T03:52:37.946Z,-1.69
2023-01-30T03:55:06.172Z,-1.62
2023-01-30T03:57:33.525Z,-1.51
2023-01-30T04:00:01.217Z,-1.59
2023-01-30T04:02:28.568Z,-1.53
2023-01-30T04:04:56.347Z,-1.48
2023-01-30T04:07:23.926Z,-1.54
2023-01-30T04:09:51.559Z,-1.44
2023-01-30T04:12:18.984Z,-1.48
2023-01-30T04:14:46.645Z,-1.56
2023-01-30T04:17:14.047Z,-1.56
2023-01-30T04:19:41.660Z,-1.53
2023-01-30T04:22:08.942Z,-1.54
2023-01-30T04:24:36.465Z,-1.49
2023-01-30T04:27:03.922Z,-1.52
2023-01-30T04:29:31.691Z,-1.56
2023-01-30T04:31:58.995Z,-1.67
2023-01-30T04:34:26.537Z,-1.66
2023-01-30T04:36:53.866Z,-1.67
2023-01-30T04:39:22.191Z,-1.55
2023-01-30T04:41:49.618Z,-1.41
2023-01-30T04:44:17.286Z,-1.47
2023-01-30T04:46:44.702Z,-1.41
2023-01-30T04:49:12.787Z,-1.42
2023-01-30T04:51:40.086Z,-1.31
2023-01-30T04:54:07.801Z,-1.46
2023-01-30T04:56:35.147Z,-1.32
2023-01-30T04:59:02.859Z,-1.41
2023-01-30T05:01:42.295Z,-1.38
2023-01-30T05:04:10.283Z,-1.38
2023-01-30T05:06:37.728Z,-1.31
2023-01-30T05:09:06.109Z,-1.34
2023-01-30T05:11:34.078Z,-1.28
2023-01-30T05:14:02.219Z,-1.27
2023-01-30T05:16:29.908Z,-1.36
2023-01-30T05:18:57.695Z,-1.39
2023-01-30T05:21:30.765Z,-1.27
2023-01-30T05:23:58.576Z,-1.30
2023-01-30T05:26:27.111Z,-1.13
2023-01-30T05:28:57.219Z,-1.23
2023-01-30T05:31:25.631Z,-1.27
2023-01-30T05:33:53.616Z,-1.31
2023-01-30T05:36:23.566Z,-1.32
2023-01-30T05:38:51.325Z,-1.31
2023-01-30T05:41:19.043Z,-1.15
2023-01-30T05:43:51.102Z,-1.23
2023-01-30T05:46:18.885Z,-1.20
2023-01-30T05:48:46.811Z,-1.08
2023-01-30T05:51:32.273Z,-0.83
2023-01-30T05:54:00.443Z,-0.97
2023-01-30T05:56:27.829Z,-1.05
2023-01-30T05:58:57.005Z,-1.07
2023-01-30T06:01:24.648Z,-0.96
2023-01-30T06:03:53.253Z,-1.04
2023-01-30T06:06:21.838Z,-0.92
2023-01-30T06:08:54.566Z,-1.09
2023-01-30T06:11:22.978Z,-1.04
2023-01-30T06:13:50.741Z,-0.96
2023-01-30T06:16:19.537Z,-0.93
2023-01-30T06:18:47.578Z,-0.96
2023-01-30T06:21:16.441Z,-1.02
2023-01-30T06:23:44.330Z,-0.90
2023-01-30T06:26:11.757Z,-0.88
2023-01-30T06:28:39.375Z,-0.82
2023-01-30T06:31:08.332Z,-0.94
2023-01-30T06:33:36.424Z,-0.95
2023-01-30T06:36:04.072Z,-0.87
2023-01-30T06:38:31.681Z,-0.87
2023-01-30T06:40:59.211Z,-0.78
2023-01-30T06:43:26.780Z,-0.88
2023-01-30T06:45:54.095Z,-0.82
2023-01-30T06:48:21.718Z,-0.76
2023-01-30T06:50:49.051Z,-0.76
2023-01-30T06:53:16.696Z,-0.72
2023-01-30T06:55:43.999Z,-0.71
2023-01-30T06:58:15.020Z,-0.71
2023-01-30T07:00:43.375Z,-0.69
2023-01-30T07:03:17.189Z,-0.66
2023-01-30T07:05:47.572Z,-0.46
2023-01-30T07:08:16.655Z,-0.59
2023-01-30T07:10:45.497Z,-0.53
2023-01-30T07:13:13.768Z,-0.44
2023-01-30T07:15:41.114Z,-0.36
2023-01-30T07:18:08.899Z,-0.27
2023-01-30T07:20:36.259Z,-0.23
2023-01-30T07:23:04.324Z,-0.40
2023-01-30T07:25:31.673Z,-0.34
2023-01-30T07:28:03.309Z,-0.37
2023-01-30T07:30:36.140Z,-0.35
2023-01-30T07:33:06.629Z,-0.42
2023-01-30T07:35:36.890Z,-0.35
2023-01-30T07:38:05.756Z,-0.38
2023-01-30T07:40:33.519Z,-0.31
2023-01-30T07:43:12.117Z,-0.33
2023-01-30T07:45:49.067Z,-0.32
2023-01-30T07:48:19.644Z,-0.23
2023-01-30T07:50:47.452Z,-0.15
2023-01-30T07:53:18.910Z,-0.07
2023-01-30T07:55:46.448Z,-0.06
2023-01-30T07:58:17.992Z,0.00
2023-01-30T08:00:45.771Z,-0.07
2023-01-30T08:03:15.902Z,0.11
2023-01-30T08:05:47.054Z,-0.05
2023-01-30T08:08:15.156Z,0.10
2023-01-30T08:10:42.925Z,0.21
2023-01-30T08:13:10.821Z,0.32
2023-01-30T08:15:38.242Z,0.25
2023-01-30T08:18:07.489Z,0.43
2023-01-30T08:20:35.053Z,0.53
2023-01-30T08:23:03.350Z,0.72
2023-01-30T08:25:31.158Z,0.84
2023-01-30T08:28:00.633Z,1.25
2023-01-30T08:30:30.683Z,1.68
2023-01-30T08:32:59.193Z,2.17
2023-01-30T08:35:26.991Z,2.01
2023-01-30T08:37:54.837Z,1.59
2023-01-30T08:40:22.171Z,1.27
2023-01-30T08:42:49.797Z,1.04
2023-01-30T08:45:17.172Z,1.00
2023-01-30T08:47:44.736Z,0.87
2023-01-30T08:50:12.366Z,0.86
2023-01-30T08:52:39.989Z,0.59
2023-01-30T08:55:08.042Z,0.48
2023-01-30T08:57:36.603Z,0.54
2023-01-30T09:00:05.804Z,0.58
2023-01-30T09:02:35.263Z,0.44
2023-01-30T09:05:04.163Z,0.58
2023-01-30T09:07:33.628Z,0.58
2023-01-30T09:10:01.929Z,0.47
2023-01-30T09:12:29.513Z,0.51
2023-01-30T09:14:58.588Z,0.43
2023-01-30T09:17:26.567Z,0.51
2023-01-30T09:19:54.200Z,0.66
2023-01-30T09:22:21.912Z,0.55
2023-01-30T09:24:49.251Z,0.73
2023-01-30T09:27:16.804Z,0.83
2023-01-30T09:29:45.410Z,0.96
2023-01-30T09:32:13.027Z,0.76
2023-01-30T09:34:40.528Z,0.77
2023-01-30T09:37:08.396Z,0.79
2023-01-30T09:39:35.748Z,0.77
2023-01-30T09:42:07.152Z,0.95
2023-01-30T09:45:21.584Z,0.97
2023-01-30T09:48:18.473Z,1.03
2023-01-30T09:51:02.607Z,1.05
2023-01-30T09:53:36.304Z,1.20
2023-01-30T09:56:06.387Z,0.95
2023-01-30T09:59:03.347Z,1.05
2023-01-30T10:02:09.315Z,0.98
2023-01-30T10:05:00.112Z,0.83
2023-01-30T10:07:34.098Z,0.84
2023-01-30T10:10:28.623Z,0.76
2023-01-30T10:13:13.673Z,0.65
2023-01-30T10:16:09.832Z,0.63
2023-01-30T10:19:20.561Z,0.63
2023-01-30T10:22:41.229Z,0.55
2023-01-30T10:25:38.779Z,0.60
2023-01-30T10:28:37.606Z,0.64
2023-01-30T10:31:15.734Z,0.62
2023-01-30T10:34:06.580Z,0.52
2023-01-30T10:36:49.740Z,0.44
2023-01-30T10:39:55.540Z,0.49
2023-01-30T10:42:44.009Z,0.34
2023-01-30T10:45:17.535Z,0.38
2023-01-30T10:48:31.372Z,0.41
2023-01-30T10:51:33.649Z,0.40
2023-01-30T10:54:26.928Z,0.45
2023-01-30T10:57:23.923Z,0.54
2023-01-30T11:00:11.295Z,0.60
2023-01-30T11:03:05.035Z,0.66
2023-01-30T11:05:47.531Z,0.76
2023-01-30T11:08:28.918Z,0.90
2023-01-30T11:10:57.962Z,0.83
2023-01-30T11:13:34.498Z,0.55
2023-01-30T11:16:08.049Z,0.70
2023-01-30T11:19:18.698Z,0.71
2023-01-30T11:21:44.557Z,0.69
2023-01-30T11:24:31.009Z,0.74
2023-01-30T11:27:29.441Z,0.62
2023-01-30T11:30:11.165Z,0.72
2023-01-30T11:32:38.671Z,0.82
2023-01-30T11:35:09.342Z,0.88
2023-01-30T11:37:41.359Z,1.00
2023-01-30T11:40:31.277Z,0.96
2023-01-30T11:43:14.260Z,0.90
2023-01-30T11:45:50.514Z,0.72
2023-01-30T11:48:32.955Z,0.78
2023-01-30T11:51:16.956Z,0.80
2023-01-30T11:54:01.225Z,0.95
2023-01-30T11:56:54.528Z,1.04
2023-01-30T11:59:37.157Z,1.24
2023-01-30T12:02:29.968Z,1.25
2023-01-30T12:05:05.463Z,1.14
2023-01-30T12:07:37.611Z,1.23
2023-01-30T12:10:31.652Z,1.15
2023-01-30T12:13:20.155Z,1.21
2023-01-30T12:15:58.265Z,1.10
2023-01-30T12:18:50.941Z,1.11
2023-01-30T12:21:36.329Z,1.06
2023-01-30T12:24:25.909Z,1.23
2023-01-30T12:27:10.039Z,1.21
2023-01-30T12:30:11.320Z,1.30
2023-01-30T12:32:38.975Z,1.25
2023-01-30T12:35:18.562Z,1.23
2023-01-30T12:38:05.597Z,1.32
2023-01-30T12:41:16.572Z,1.31
2023-01-30T12:48:22.862Z,1.21
2023-01-30T12:51:21.248Z,1.16
2023-01-30T12:54:21.307Z,1.27
2023-01-30T12:57:10.413Z,1.24
2023-01-30T12:59:47.071Z,1.24
2023-01-30T13:03:12.917Z,1.32
2023-01-30T13:05:54.447Z,1.29
2023-01-30T13:08:43.047Z,1.09
2023-01-30T13:11:42.046Z,1.18
2023-01-30T13:14:44.734Z,1.17
2023-01-30T13:17:49.788Z,1.16
2023-01-30T13:20:53.220Z,1.07
2023-01-30T13:23:54.433Z,1.25
2023-01-30T13:26:31.369Z,1.24
2023-01-30T13:29:29.782Z,1.25
2023-01-30T13:32:02.629Z,1.25
2023-01-30T13:34:45.762Z,1.13
2023-01-30T13:37:20.764Z,1.21
2023-01-30T13:40:13.643Z,1.26
2023-01-30T13:43:02.195Z,1.20
2023-01-30T13:45:36.778Z,1.31
2023-01-30T13:48:30.922Z,1.38
2023-01-30T13:51:52.994Z,1.58
2023-01-30T13:54:50.680Z,1.83
2023-01-30T13:57:40.307Z,2.17
2023-01-30T14:00:26.896Z,5.59
2023-01-30T14:03:06.729Z,9.28
2023-01-30T14:05:52.795Z,10.03
2023-01-30T14:08:38.171Z,10.75
2023-01-30T14:11:37.303Z,8.04
2023-01-30T14:14:32.363Z,6.18
2023-01-30T14:17:16.721Z,4.99
2023-01-30T14:20:00.828Z,4.23
2023-01-30T14:22:54.593Z,4.05
2023-01-30T14:25:32.945Z,3.37
2023-01-30T14:28:00.419Z,3.01
2023-01-30T14:30:56.069Z,2.70
2023-01-30T14:33:23.787Z,2.64
2023-01-30T14:36:03.268Z,2.55
2023-01-30T14:38:36.088Z,2.48
2023-01-30T14:41:03.377Z,2.37
2023-01-30T14:43:43.035Z,2.37
2023-01-30T14:46:19.643Z,2.25
2023-01-30T14:49:19.530Z,2.23
2023-01-30T14:51:49.806Z,2.10
2023-01-30T14:54:17.319Z,2.15
2023-01-30T14:56:57.205Z,2.08
2023-01-30T14:59:54.082Z,2.22
2023-01-30T15:02:49.491Z,2.06
2023-01-30T15:05:30.795Z,2.05
2023-01-30T15:08:12.960Z,2.07
2023-01-30T15:10:49.418Z,2.15
2023-01-30T15:13:58.964Z,2.12
2023-01-30T15:17:03.051Z,2.04
2023-01-30T15:20:02.698Z,1.90
2023-01-30T15:23:18.569Z,2.02
2023-01-30T15:25:57.346Z,2.15
2023-01-30T15:29:06.509Z,2.18
2023-01-30T15:31:33.982Z,2.11
2023-01-30T15:34:01.717Z,2.04
2023-01-30T15:36:35.981Z,2.06
2023-01-30T15:39:40.358Z,2.07
2023-01-30T15:42:15.314Z,2.17
2023-01-30T15:45:33.331Z,2.14
2023-01-30T15:48:31.556Z,2.14
2023-01-30T15:51:01.461Z,2.07
2023-01-30T15:53:41.363Z,2.12
2023-01-30T15:56:17.781Z,2.09
2023-01-30T15:58:45.995Z,2.14
2023-01-30T16:01:21.365Z,2.12
2023-01-30T16:03:50.281Z,2.13
2023-01-30T16:06:23.853Z,2.13
2023-01-30T16:09:00.807Z,2.18
2023-01-30T16:11:42.772Z,2.24
2023-01-30T16:14:22.208Z,2.23
2023-01-30T16:17:10.503Z,2.23
2023-01-30T16:19:39.109Z,2.30
2023-01-30T16:22:19.152Z,2.24
2023-01-30T16:24:53.226Z,2.28
2023-01-30T16:27:32.253Z,2.26
2023-01-30T16:30:08.686Z,2.26
2023-01-30T16:32:37.521Z,2.43
2023-01-30T16:35:27.099Z,2.33
2023-01-30T16:37:59.152Z,2.25
2023-01-30T16:40:45.553Z,2.33
2023-01-30T16:43:25.003Z,2.30
2023-01-30T16:45:55.245Z,2.28
2023-01-30T16:48:43.974Z,2.29
2023-01-30T16:51:21.764Z,2.29
2023-01-30T16:54:04.860Z,2.38
2023-01-30T16:56:34.975Z,2.41
2023-01-30T16:59:03.656Z,2.49
2023-01-30T17:01:41.466Z,2.46
2023-01-30T17:04:22.958Z,2.35
2023-01-30T17:07:01.699Z,2.26
2023-01-30T17:09:42.731Z,2.36
2023-01-30T17:12:31.240Z,2.35
2023-01-30T17:15:13.893Z,2.24
2023-01-30T17:17:42.575Z,2.35
2023-01-30T17:20:13.180Z,2.46
2023-01-30T17:22:44.604Z,2.50
2023-01-30T17:25:33.005Z,2.48
2023-01-30T17:28:00.396Z,2.46
2023-01-30T17:30:28.021Z,2.46
2023-01-30T17:32:55.329Z,2.52
2023-01-30T17:35:23.048Z,2.54
2023-01-30T17:37:59.750Z,2.48
2023-01-30T17:40:36.872Z,2.48
2023-01-30T17:43:05.580Z,2.40
2023-01-30T17:45:33.747Z,2.42
2023-01-30T17:48:01.803Z,2.41
2023-01-30T17:50:29.505Z,2.40
2023-01-30T17:52:56.883Z,2.47
2023-01-30T17:55:25.123Z,2.32
2023-01-30T17:57:53.157Z,2.33
2023-01-30T18:00:22.902Z,2.20
2023-01-30T18:02:50.447Z,2.37
2023-01-30T18:05:18.231Z,2.36
2023-01-30T18:07:45.708Z,2.32
2023-01-30T18:10:20.460Z,2.33
2023-01-30T18:12:48.013Z,2.34
2023-01-30T18:15:16.658Z,2.40
2023-01-30T18:17:48.540Z,2.53
2023-01-30T18:20:20.275Z,2.43
2023-01-30T18:22:48.091Z,2.56
2023-01-30T18:25:17.649Z,2.50
2023-01-30T18:27:47.410Z,2.50
2023-01-30T18:30:17.686Z,2.46
2023-01-30T18:32:53.562Z,2.49
2023-01-30T18:35:23.200Z,2.50
2023-01-30T18:37:51.109Z,2.52
2023-01-30T18:40:20.876Z,2.55
2023-01-30T18:42:48.706Z,2.58
2023-01-30T18:45:16.582Z,2.59
2023-01-30T18:47:44.008Z,2.77
2023-01-30T18:50:12.277Z,2.74
2023-01-30T18:52:39.697Z,2.63
2023-01-30T18:55:07.903Z,2.76
2023-01-30T18:57:35.230Z,2.85
2023-01-30T19:00:03.348Z,2.76
2023-01-30T19:02:30.910Z,2.73
2023-01-30T19:04:58.572Z,2.78
2023-01-30T19:07:25.881Z,2.94
2023-01-30T19:09:53.666Z,2.84
2023-01-30T19:12:41.382Z,2.85
2023-01-30T19:15:10.249Z,2.98
2023-01-30T19:17:37.543Z,2.98
2023-01-30T19:20:10.863Z,2.78
2023-01-30T19:22:39.270Z,2.80
2023-01-30T19:25:07.842Z,2.90
2023-01-30T19:27:38.508Z,2.81
2023-01-30T19:30:07.424Z,2.84
2023-01-30T19:32:35.039Z,3.00
2023-01-30T19:35:02.965Z,2.96
2023-01-30T19:37:30.407Z,2.94
2023-01-30T19:39:58.039Z,2.94
2023-01-30T19:42:25.444Z,2.92
2023-01-30T19:44:53.255Z,2.91
2023-01-30T19:47:22.130Z,2.89
2023-01-30T19:49:49.914Z,2.93
2023-01-30T19:52:17.190Z,2.99
2023-01-30T19:54:47.039Z,3.00
2023-01-30T19:57:14.406Z,2.99
2023-01-30T19:59:42.839Z,2.92
2023-01-30T20:02:13.305Z,2.89
2023-01-30T20:04:41.058Z,2.88
2023-01-30T20:07:08.417Z,2.94
2023-01-30T20:09:36.139Z,2.94
2023-01-30T20:12:03.840Z,2.93
2023-01-30T20:14:31.549Z,2.93
2023-01-30T20:16:58.895Z,3.01
2023-01-30T20:19:27.289Z,3.04
2023-01-30T20:21:55.184Z,3.08
2023-01-30T20:24:23.002Z,3.15
2023-01-30T20:26:50.513Z,3.21
2023-01-30T20:29:18.256Z,3.20
2023-01-30T20:31:45.689Z,3.15
2023-01-30T20:34:15.265Z,3.23
2023-01-30T20:36:42.805Z,3.25
2023-01-30T20:39:10.639Z,3.17
2023-01-30T20:41:38.766Z,3.13
2023-01-30T20:44:10.531Z,3.07
2023-01-30T20:46:44.195Z,2.98
2023-01-30T20:49:29.929Z,2.95
2023-01-30T20:51:57.195Z,2.94
2023-01-30T20:54:24.778Z,2.96
2023-01-30T20:56:53.990Z,2.95
2023-01-30T20:59:24.490Z,2.95
2023-01-30T21:01:53.275Z,2.89
2023-01-30T21:04:24.574Z,2.81
2023-01-30T21:06:52.240Z,2.96
2023-01-30T21:09:23.146Z,2.90
2023-01-30T21:11:53.113Z,2.91
2023-01-30T21:14:21.584Z,2.85
2023-01-30T21:16:49.448Z,2.79
2023-01-30T21:19:18.239Z,2.83
2023-01-30T21:21:53.498Z,2.84
2023-01-30T21:24:28.567Z,2.80
2023-01-30T21:26:56.967Z,2.82
2023-01-30T21:29:28.417Z,2.85
2023-01-30T21:31:57.818Z,2.81
2023-01-30T21:34:25.864Z,2.88
2023-01-30T21:37:11.798Z,2.92
2023-01-30T21:39:58.206Z,2.94
2023-01-30T21:42:44.055Z,2.95
2023-01-30T21:45:11.712Z,2.87
2023-01-30T21:47:39.028Z,2.90
2023-01-30T21:50:07.588Z,2.99
2023-01-30T21:52:35.142Z,3.01
2023-01-30T21:55:02.904Z,3.04
2023-01-30T21:57:30.338Z,3.17
2023-01-30T21:59:58.066Z,3.13
2023-01-30T22:02:25.516Z,3.09
2023-01-30T22:04:53.225Z,3.11
2023-01-30T22:07:20.596Z,3.18
2023-01-30T22:09:48.993Z,3.17
2023-01-30T22:12:16.495Z,3.34
2023-01-30T22:14:44.074Z,3.34
2023-01-30T22:17:11.468Z,3.36
2023-01-30T22:19:39.703Z,3.31
2023-01-30T22:22:07.143Z,3.31
2023-01-30T22:24:34.817Z,3.33
2023-01-30T22:27:02.203Z,3.47
2023-01-30T22:29:29.903Z,3.38
2023-01-30T22:31:57.334Z,3.37
2023-01-30T22:34:25.053Z,3.35
2023-01-30T22:36:53.059Z,3.46
2023-01-30T22:39:20.765Z,3.55
2023-01-30T22:41:48.142Z,3.41
2023-01-30T22:44:15.737Z,3.46
2023-01-30T22:46:43.061Z,3.33
2023-01-30T22:49:10.959Z,3.23
2023-01-30T22:51:41.211Z,3.18
2023-01-30T22:54:16.073Z,3.12
2023-01-30T22:56:47.630Z,3.19
2023-01-30T22:59:15.343Z,3.25
2023-01-30T23:01:46.864Z,3.11
2023-01-30T23:04:19.278Z,3.01
2023-01-30T23:06:47.753Z,3.05
2023-01-30T23:09:20.040Z,3.03
2023-01-30T23:12:10.807Z,2.90
2023-01-30T23:14:39.292Z,2.94
2023-01-30T23:17:26.782Z,2.88
2023-01-30T23:19:57.767Z,2.93
2023-01-30T23:22:25.223Z,2.92
2023-01-30T23:24:52.828Z,2.95
2023-01-30T23:27:21.183Z,2.89
2023-01-30T23:29:48.925Z,2.81
2023-01-30T23:32:19.942Z,2.85
2023-01-30T23:34:48.273Z,2.77
2023-01-30T23:37:16.650Z,2.93
2023-01-30T23:39:44.985Z,2.84
2023-01-30T23:42:12.244Z,2.79
2023-01-30T23:44:40.128Z,2.84
2023-01-30T23:47:07.604Z,2.90
2023-01-30T23:49:35.400Z,2.85
2023-01-30T23:52:02.709Z,2.92
2023-01-30T23:54:30.337Z,2.92
2023-01-30T23:56:57.664Z,2.88
2023-01-30T23:59:25.235Z,2.79
